Time;durP1;ratioP1;P1;durP2;ratioP2;P2;SDS_P1;SDS_P2;PMS_P1;PMS_P2;Temp;Humidity;BMP_temperature;BMP_pressure;BME280_temperature;BME280_humidity;BME280_pressure;Samples;Min_cycle;Max_cycle;Signal;HPM_P1;HPM_P2
2021/11/13 00:01:10;;;;;;;1999.90;999.90;;;4.10;99.90;;;;;;5114174;28;20044;-78
2021/11/13 00:03:36;;;;;;;1999.90;999.90;;;4.00;99.90;;;;;;5114261;28;20024;-81
2021/11/13 00:06:01;;;;;;;1999.90;999.90;;;4.00;99.90;;;;;;5114304;28;20119;-79
2021/11/13 00:08:27;;;;;;;1999.90;999.90;;;4.00;99.90;;;;;;5114190;28;20128;-80
2021/11/13 00:10:53;;;;;;;1999.90;999.90;;;4.00;99.90;;;;;;5115673;28;20057;-79
2021/11/13 00:13:24;;;;;;;1999.90;999.90;;;4.00;99.90;;;;;;5118047;28;20388;-81
2021/11/13 00:15:51;;;;;;;1999.90;999.90;;;3.90;99.90;;;;;;5118534;28;20106;-80
2021/11/13 00:18:17;;;;;;;1999.90;999.90;;;4.00;99.90;;;;;;5115466;28;20019;-79
2021/11/13 00:20:43;;;;;;;1999.90;999.90;;;4.00;99.90;;;;;;5115560;28;20382;-80
2021/11/13 00:23:09;;;;;;;1999.90;999.90;;;4.00;99.90;;;;;;5113825;28;20027;-82
2021/11/13 00:25:35;;;;;;;1999.90;999.90;;;4.00;99.90;;;;;;5113637;28;20036;-79
2021/11/13 00:28:00;;;;;;;1999.90;999.90;;;3.90;99.90;;;;;;5113747;28;20374;-80
2021/11/13 00:30:27;;;;;;;1999.90;999.90;;;3.80;99.90;;;;;;5113727;28;20016;-81
2021/11/13 00:32:53;;;;;;;1999.90;999.90;;;3.80;99.90;;;;;;5113658;28;20182;-79
2021/11/13 00:35:19;;;;;;;1999.90;999.90;;;3.80;99.90;;;;;;5115109;27;20110;-81
2021/11/13 00:37:44;;;;;;;1999.90;999.90;;;3.80;99.90;;;;;;5113519;28;20026;-81
2021/11/13 00:40:13;;;;;;;1999.90;999.90;;;3.80;99.90;;;;;;5114589;28;20379;-79
2021/11/13 00:42:39;;;;;;;1999.90;999.90;;;3.90;99.90;;;;;;5113536;28;20027;-79
2021/11/13 00:45:06;;;;;;;1999.90;999.90;;;3.90;99.90;;;;;;5112896;28;20039;-79
2021/11/13 00:47:32;;;;;;;1999.90;999.90;;;3.90;99.90;;;;;;5114539;27;20027;-79
2021/11/13 00:49:58;;;;;;;1999.90;999.90;;;3.80;99.90;;;;;;5113104;28;20027;-79
2021/11/13 00:52:24;;;;;;;1999.90;999.90;;;3.80;99.90;;;;;;5113169;28;20016;-79
2021/11/13 00:54:50;;;;;;;1999.90;999.90;;;3.90;99.90;;;;;;5113128;28;20051;-79
2021/11/13 00:57:16;;;;;;;1999.90;999.90;;;4.00;99.90;;;;;;5112846;28;20494;-80
2021/11/13 00:59:41;;;;;;;1999.90;999.90;;;4.00;99.90;;;;;;5112991;28;20069;-79
2021/11/13 01:02:07;;;;;;;1999.90;999.90;;;4.10;99.90;;;;;;5113157;28;20451;-79
2021/11/13 01:04:34;;;;;;;1999.90;999.90;;;4.00;99.90;;;;;;5112939;28;20024;-78
2021/11/13 01:06:59;;;;;;;1999.90;999.90;;;3.90;99.90;;;;;;5113146;28;20031;-79
2021/11/13 01:09:26;;;;;;;1999.90;999.90;;;3.80;99.90;;;;;;5112862;28;20047;-79
2021/11/13 01:11:52;;;;;;;1999.90;999.90;;;3.90;99.90;;;;;;5114057;28;20482;-79
2021/11/13 01:14:18;;;;;;;1999.90;999.90;;;3.90;99.90;;;;;;5112295;28;20111;-80
2021/11/13 01:16:43;;;;;;;1999.90;999.90;;;3.90;99.90;;;;;;5112669;28;20035;-79
2021/11/13 01:19:11;;;;;;;1999.90;999.90;;;4.00;99.90;;;;;;5112919;28;20020;-79
2021/11/13 01:21:37;;;;;;;1999.90;999.90;;;4.00;99.90;;;;;;5112291;28;20231;-78
2021/11/13 01:24:03;;;;;;;1999.90;999.90;;;4.00;99.90;;;;;;5112458;28;20020;-78
2021/11/13 01:26:29;;;;;;;1999.90;999.90;;;4.00;99.90;;;;;;5112345;28;20038;-79
2021/11/13 01:28:55;;;;;;;1999.90;999.90;;;3.90;99.90;;;;;;5112637;28;20023;-78
2021/11/13 01:31:21;;;;;;;1999.90;999.90;;;3.90;99.90;;;;;;5113744;28;20034;-78
2021/11/13 01:33:46;;;;;;;1999.90;999.90;;;3.90;99.90;;;;;;5112668;28;20106;-79
2021/11/13 01:36:13;;;;;;;1999.90;999.90;;;3.90;99.90;;;;;;5112662;28;20176;-80
2021/11/13 01:38:39;;;;;;;1999.90;999.90;;;3.90;99.90;;;;;;5112544;28;20176;-79
2021/11/13 01:41:05;;;;;;;1999.90;999.90;;;3.90;99.90;;;;;;5112406;28;20024;-84
2021/11/13 01:43:37;;;;;;;1999.90;999.90;;;3.90;99.90;;;;;;5112418;28;20019;-82
2021/11/13 01:46:05;;;;;;;1999.90;999.90;;;4.00;99.90;;;;;;5112194;28;20032;-78
2021/11/13 01:48:30;;;;;;;1999.90;999.90;;;4.00;99.90;;;;;;5112458;28;20366;-78
2021/11/13 01:50:57;;;;;;;1999.90;999.90;;;4.00;99.90;;;;;;5112252;28;20011;-78
2021/11/13 01:53:28;;;;;;;1999.90;999.90;;;3.90;99.90;;;;;;5112431;28;20019;-78
2021/11/13 01:55:56;;;;;;;1999.90;999.90;;;3.80;99.90;;;;;;5111993;28;20493;-79
2021/11/13 01:58:23;;;;;;;1999.90;999.90;;;3.80;99.90;;;;;;5112310;28;20051;-79
2021/11/13 02:00:54;;;;;;;1999.90;999.90;;;3.80;99.90;;;;;;5113818;28;20043;-80
2021/11/13 02:03:21;;;;;;;1999.90;999.90;;;3.70;99.90;;;;;;5114255;28;20483;-80
2021/11/13 02:05:48;;;;;;;1999.90;999.90;;;3.70;99.90;;;;;;5113543;28;20051;-79
2021/11/13 02:08:14;;;;;;;1999.90;999.90;;;3.80;99.90;;;;;;5112535;28;20024;-79
2021/11/13 02:10:40;;;;;;;1999.90;999.90;;;3.80;99.90;;;;;;5112326;28;20028;-80
2021/11/13 02:13:06;;;;;;;1999.90;999.90;;;3.80;99.90;;;;;;5113183;28;20027;-78
2021/11/13 02:15:32;;;;;;;1999.90;999.90;;;3.80;99.90;;;;;;5111756;28;20386;-79
2021/11/13 02:17:59;;;;;;;1999.90;999.90;;;3.90;99.90;;;;;;5111858;28;20034;-79
2021/11/13 02:20:30;;;;;;;1999.90;999.90;;;3.80;99.90;;;;;;5111840;28;20032;-78
2021/11/13 02:23:02;;;;;;;1999.90;999.90;;;3.90;99.90;;;;;;5111701;28;20042;-81
2021/11/13 02:25:30;;;;;;;1999.90;999.90;;;3.90;99.90;;;;;;5111730;28;20088;-79
2021/11/13 02:27:57;;;;;;;1999.90;999.90;;;3.90;99.90;;;;;;5111776;28;20603;-79
2021/11/13 02:30:23;;;;;;;1999.90;999.90;;;3.90;99.90;;;;;;5111962;28;20023;-80
2021/11/13 02:32:50;;;;;;;1999.90;999.90;;;3.90;99.90;;;;;;5112214;28;20027;-79
2021/11/13 02:35:16;;;;;;;1999.90;999.90;;;3.90;99.90;;;;;;5115659;28;20028;-78
2021/11/13 02:37:44;;;;;;;1999.90;999.90;;;3.90;99.90;;;;;;5115617;28;20008;-79
2021/11/13 02:40:11;;;;;;;1999.90;999.90;;;3.90;99.90;;;;;;5115814;28;20035;-78
2021/11/13 02:42:37;;;;;;;1999.90;999.90;;;3.90;99.90;;;;;;5115172;28;20335;-79
2021/11/13 02:45:07;;;;;;;1999.90;999.90;;;3.90;99.90;;;;;;5115057;28;20035;-78
2021/11/13 02:47:34;;;;;;;1999.90;999.90;;;3.90;99.90;;;;;;5115144;28;20475;-79
2021/11/13 02:50:00;;;;;;;1999.90;999.90;;;3.90;99.90;;;;;;5115127;28;20038;-79
2021/11/13 02:52:27;;;;;;;1999.90;999.90;;;3.90;99.90;;;;;;5116718;28;20027;-78
2021/11/13 02:54:53;;;;;;;1999.90;999.90;;;3.90;99.90;;;;;;5115223;28;20015;-79
2021/11/13 02:57:19;;;;;;;1999.90;999.90;;;3.80;99.90;;;;;;5115019;28;20031;-79
2021/11/13 02:59:47;;;;;;;1999.90;999.90;;;3.80;99.90;;;;;;5116254;28;20077;-78
2021/11/13 03:02:13;;;;;;;1999.90;999.90;;;3.90;99.90;;;;;;5116038;28;20043;-79
2021/11/13 03:04:39;;;;;;;1999.90;999.90;;;3.90;99.90;;;;;;5115009;28;20554;-79
2021/11/13 03:07:06;;;;;;;1999.90;999.90;;;3.90;99.90;;;;;;5115270;28;20031;-79
2021/11/13 03:09:33;;;;;;;1999.90;999.90;;;3.90;99.90;;;;;;5115093;28;20024;-79
2021/11/13 03:11:59;;;;;;;1999.90;999.90;;;3.90;99.90;;;;;;5115985;28;20347;-79
2021/11/13 03:14:25;;;;;;;1999.90;999.90;;;3.90;99.90;;;;;;5114705;28;20467;-80
2021/11/13 03:16:51;;;;;;;1999.90;999.90;;;3.80;99.90;;;;;;5114728;28;20081;-79
2021/11/13 03:19:16;;;;;;;1999.90;999.90;;;3.80;99.90;;;;;;5114686;28;20020;-80
2021/11/13 03:21:43;;;;;;;1999.90;999.90;;;3.80;99.90;;;;;;5114471;28;20023;-79
2021/11/13 03:24:08;;;;;;;1999.90;999.90;;;3.90;99.90;;;;;;5114771;28;20118;-79
2021/11/13 03:26:34;;;;;;;1999.90;999.90;;;3.90;99.90;;;;;;5114667;28;20169;-79
2021/11/13 03:29:14;;;;;;;1999.90;999.90;;;3.90;99.90;;;;;;5114567;28;20024;-78
2021/11/13 03:31:42;;;;;;;1999.90;999.90;;;3.80;99.90;;;;;;5114507;28;20051;-78
2021/11/13 03:34:08;;;;;;;1999.90;999.90;;;3.80;99.90;;;;;;5114155;28;20092;-78
2021/11/13 03:36:35;;;;;;;1999.90;999.90;;;3.80;99.90;;;;;;5114413;28;20023;-79
2021/11/13 03:39:02;;;;;;;1999.90;999.90;;;3.80;99.90;;;;;;5114457;28;20108;-78
2021/11/13 03:41:30;;;;;;;1999.90;999.90;;;3.80;99.90;;;;;;5115877;28;21080;-78
2021/11/13 03:43:56;;;;;;;1999.90;999.90;;;3.90;99.90;;;;;;5114262;28;20428;-79
2021/11/13 03:46:22;;;;;;;1999.90;999.90;;;3.80;99.90;;;;;;5114303;28;20126;-79
2021/11/13 03:48:49;;;;;;;1999.90;999.90;;;3.90;99.90;;;;;;5116452;28;20051;-84
2021/11/13 03:51:14;;;;;;;1999.90;999.90;;;3.80;99.90;;;;;;5116400;28;20027;-80
2021/11/13 03:53:40;;;;;;;1999.90;999.90;;;3.90;99.90;;;;;;5114464;28;20030;-79
2021/11/13 03:56:06;;;;;;;1999.90;999.90;;;3.80;99.90;;;;;;5113968;28;20035;-79
2021/11/13 03:58:32;;;;;;;1999.90;999.90;;;3.80;99.90;;;;;;5114211;28;20019;-81
2021/11/13 04:00:58;;;;;;;1999.90;999.90;;;3.80;99.90;;;;;;5113837;28;20482;-78
2021/11/13 04:03:24;;;;;;;1999.90;999.90;;;3.70;99.90;;;;;;5114242;28;20064;-79
2021/11/13 04:05:49;;;;;;;1999.90;999.90;;;3.70;99.90;;;;;;5113312;28;20044;-80
2021/11/13 04:08:15;;;;;;;1999.90;999.90;;;3.70;99.90;;;;;;5113434;28;20371;-78
2021/11/13 04:10:42;;;;;;;1999.90;999.90;;;3.70;99.90;;;;;;5113865;28;20030;-78
2021/11/13 04:13:08;;;;;;;1999.90;999.90;;;3.90;99.90;;;;;;5113816;28;20490;-79
2021/11/13 04:15:34;;;;;;;1999.90;999.90;;;3.90;99.90;;;;;;5115063;28;20020;-79
2021/11/13 04:18:01;;;;;;;1999.90;999.90;;;3.90;99.90;;;;;;5113174;28;20031;-80
2021/11/13 04:20:26;;;;;;;1999.90;999.90;;;3.90;99.90;;;;;;5114940;28;20080;-80
2021/11/13 04:22:52;;;;;;;1999.90;999.90;;;3.80;99.90;;;;;;5113643;28;20027;-78
2021/11/13 04:25:19;;;;;;;1999.90;999.90;;;3.90;99.90;;;;;;5114652;28;20042;-80
2021/11/13 04:27:46;;;;;;;1999.90;999.90;;;3.90;99.90;;;;;;5113547;28;20030;-79
2021/11/13 04:30:14;;;;;;;1999.90;999.90;;;3.80;99.90;;;;;;5113406;28;20030;-79
2021/11/13 04:32:45;;;;;;;1999.90;999.90;;;3.90;99.90;;;;;;5114696;28;20020;-79
2021/11/13 04:35:17;;;;;;;1999.90;999.90;;;4.00;99.90;;;;;;5113322;28;20419;-79
2021/11/13 04:37:47;;;;;;;1999.90;999.90;;;4.00;99.90;;;;;;5113371;28;20023;-79
2021/11/13 04:40:14;;;;;;;1999.90;999.90;;;4.00;99.90;;;;;;5113617;28;20118;-79
2021/11/13 04:42:40;;;;;;;1999.90;999.90;;;3.90;99.90;;;;;;5113227;28;20076;-80
2021/11/13 04:45:06;;;;;;;1999.90;999.90;;;3.90;99.90;;;;;;5114149;28;20374;-82
2021/11/13 04:47:33;;;;;;;1999.90;999.90;;;3.90;99.90;;;;;;5113726;28;20019;-80
2021/11/13 04:50:01;;;;;;;1999.90;999.90;;;3.90;99.90;;;;;;5112915;28;20122;-78
2021/11/13 04:52:27;;;;;;;1999.90;999.90;;;4.00;99.90;;;;;;5113034;28;20020;-79
2021/11/13 04:54:53;;;;;;;1999.90;999.90;;;3.90;99.90;;;;;;5112584;28;20028;-79
2021/11/13 04:57:18;;;;;;;1999.90;999.90;;;4.00;99.90;;;;;;5112276;28;20111;-80
2021/11/13 04:59:44;;;;;;;1999.90;999.90;;;4.00;99.90;;;;;;5112743;28;20110;-78
2021/11/13 05:02:10;;;;;;;1999.90;999.90;;;4.00;99.90;;;;;;5112605;28;20054;-79
2021/11/13 05:04:35;;;;;;;1999.90;999.90;;;3.90;99.90;;;;;;5113736;28;20062;-78
2021/11/13 05:07:01;;;;;;;1999.90;999.90;;;3.90;99.90;;;;;;5112526;28;20032;-78
2021/11/13 05:09:27;;;;;;;1999.90;999.90;;;3.90;99.90;;;;;;5112805;28;20031;-79
2021/11/13 05:11:52;;;;;;;1999.90;999.90;;;3.90;99.90;;;;;;5112697;28;20031;-79
2021/11/13 05:14:18;;;;;;;1999.90;999.90;;;3.90;99.90;;;;;;5113912;28;20016;-78
2021/11/13 05:16:44;;;;;;;1999.90;999.90;;;3.90;99.90;;;;;;5112663;28;20596;-79
2021/11/13 05:19:10;;;;;;;1999.90;999.90;;;3.90;99.90;;;;;;5112668;28;20019;-80
2021/11/13 05:21:37;;;;;;;1999.90;999.90;;;3.90;99.90;;;;;;5112365;28;20497;-79
2021/11/13 05:24:02;;;;;;;1999.90;999.90;;;3.90;99.90;;;;;;5112439;28;20445;-79
2021/11/13 05:26:28;;;;;;;1999.90;999.90;;;3.80;99.90;;;;;;5112299;28;20122;-79
2021/11/13 05:28:55;;;;;;;1999.90;999.90;;;3.80;99.90;;;;;;5112322;28;20027;-79
2021/11/13 05:31:20;;;;;;;1999.90;999.90;;;3.80;99.90;;;;;;5112342;28;20028;-79
2021/11/13 05:33:46;;;;;;;1999.90;999.90;;;3.80;99.90;;;;;;5112116;28;20028;-78
2021/11/13 05:36:12;;;;;;;1999.90;999.90;;;3.90;99.90;;;;;;5113156;28;20084;-82
2021/11/13 05:38:37;;;;;;;1999.90;999.90;;;3.80;99.90;;;;;;5113173;28;20024;-81
2021/11/13 05:41:03;;;;;;;1999.90;999.90;;;3.80;99.90;;;;;;5113551;28;20026;-79
2021/11/13 05:43:29;;;;;;;1999.90;999.90;;;3.90;99.90;;;;;;5112416;28;20047;-79
2021/11/13 05:45:55;;;;;;;1999.90;999.90;;;3.80;99.90;;;;;;5111920;28;20063;-78
2021/11/13 05:48:20;;;;;;;1999.90;999.90;;;3.90;99.90;;;;;;5112151;28;20049;-80
2021/11/13 05:50:46;;;;;;;1999.90;999.90;;;3.90;99.90;;;;;;5112017;28;20102;-79
2021/11/13 05:53:12;;;;;;;1999.90;999.90;;;3.90;99.90;;;;;;5111960;28;20470;-78
2021/11/13 05:55:38;;;;;;;1999.90;999.90;;;3.90;99.90;;;;;;5111840;28;20427;-79
2021/11/13 05:58:04;;;;;;;1999.90;999.90;;;3.90;99.90;;;;;;5113132;28;20153;-78
2021/11/13 06:00:31;;;;;;;1999.90;999.90;;;4.00;99.90;;;;;;5112651;28;20051;-77
2021/11/13 06:02:57;;;;;;;1999.90;999.90;;;4.00;99.90;;;;;;5111962;28;20122;-78
2021/11/13 06:05:23;;;;;;;1999.90;999.90;;;4.60;99.90;;;;;;5112079;28;20032;-81
2021/11/13 06:07:50;;;;;;;1999.90;999.90;;;4.40;99.90;;;;;;5118814;28;20015;-80
2021/11/13 06:10:17;;;;;;;1999.90;999.90;;;4.30;99.90;;;;;;5098547;28;20027;-79
2021/11/13 06:12:43;;;;;;;1999.90;999.90;;;4.20;99.90;;;;;;5098248;28;20024;-79
2021/11/13 06:15:09;;;;;;;1999.90;999.90;;;4.10;99.90;;;;;;5099870;28;20043;-79
2021/11/13 06:17:36;;;;;;;1999.90;999.90;;;4.10;99.90;;;;;;5098252;28;20595;-78
2021/11/13 06:20:03;;;;;;;1999.90;999.90;;;4.00;99.90;;;;;;5098338;28;20020;-79
2021/11/13 06:22:29;;;;;;;1999.90;999.90;;;4.00;99.90;;;;;;5098075;28;20077;-80
2021/11/13 06:24:55;;;;;;;1999.90;999.90;;;4.00;99.90;;;;;;5099493;28;20399;-80
2021/11/13 06:27:21;;;;;;;1999.90;999.90;;;4.00;99.90;;;;;;5098261;28;20020;-79
2021/11/13 06:29:47;;;;;;;1999.90;999.90;;;4.00;99.90;;;;;;5098455;28;20059;-80
2021/11/13 06:32:13;;;;;;;1999.90;999.90;;;4.00;99.90;;;;;;5098028;28;20047;-79
2021/11/13 06:34:39;;;;;;;1999.90;999.90;;;4.10;99.90;;;;;;5098208;28;20027;-79
2021/11/13 06:37:06;;;;;;;1999.90;999.90;;;4.10;99.90;;;;;;5098047;28;20039;-79
2021/11/13 06:39:33;;;;;;;1999.90;999.90;;;4.10;99.90;;;;;;5099390;28;20080;-79
2021/11/13 06:41:59;;;;;;;1999.90;999.90;;;4.20;99.90;;;;;;5098041;28;20081;-79
2021/11/13 06:44:24;;;;;;;1999.90;999.90;;;4.10;99.90;;;;;;5099155;28;20023;-79
2021/11/13 06:46:50;;;;;;;1999.90;999.90;;;4.20;99.90;;;;;;5097895;28;20036;-79
2021/11/13 06:49:16;;;;;;;1999.90;999.90;;;4.10;99.90;;;;;;5098299;28;20523;-79
2021/11/13 06:51:42;;;;;;;1999.90;999.90;;;4.20;99.90;;;;;;5098256;28;20554;-79
2021/11/13 06:54:09;;;;;;;1999.90;999.90;;;4.20;99.90;;;;;;5097898;28;20596;-79
2021/11/13 06:56:35;;;;;;;1999.90;999.90;;;4.20;99.90;;;;;;5098027;28;20023;-78
2021/11/13 06:59:00;;;;;;;1999.90;999.90;;;4.30;99.90;;;;;;5097951;28;20024;-79
2021/11/13 07:01:26;;;;;;;1999.90;999.90;;;4.20;99.90;;;;;;5097692;28;20067;-79
2021/11/13 07:03:51;;;;;;;1999.90;999.90;;;4.20;99.90;;;;;;5097774;28;20034;-79
2021/11/13 07:06:17;;;;;;;1999.90;999.90;;;4.20;99.90;;;;;;5097792;28;20028;-79
2021/11/13 07:08:43;;;;;;;1999.90;999.90;;;4.20;99.90;;;;;;5097910;28;20037;-79
2021/11/13 07:11:08;;;;;;;1999.90;999.90;;;4.20;99.90;;;;;;5097980;28;20046;-79
2021/11/13 07:13:34;;;;;;;1999.90;999.90;;;4.20;99.90;;;;;;5099246;28;20021;-79
2021/11/13 07:16:00;;;;;;;1999.90;999.90;;;4.20;99.90;;;;;;5097710;28;20122;-79
2021/11/13 07:18:26;;;;;;;1999.90;999.90;;;4.20;99.90;;;;;;5096151;28;20055;-80
2021/11/13 07:20:55;;;;;;;1999.90;999.90;;;4.20;99.90;;;;;;5094893;28;20054;-79
2021/11/13 07:23:22;;;;;;;1999.90;999.90;;;4.20;99.90;;;;;;5096169;28;20073;-81
2021/11/13 07:25:48;;;;;;;1999.90;999.90;;;4.30;99.90;;;;;;5094464;28;20046;-80
2021/11/13 07:28:16;;;;;;;1999.90;999.90;;;4.20;99.90;;;;;;5095703;28;20046;-82
2021/11/13 07:30:45;;;;;;;1999.90;999.90;;;4.30;99.90;;;;;;5094644;28;20081;-79
2021/11/13 07:33:12;;;;;;;1999.90;999.90;;;4.20;99.90;;;;;;5094363;28;20027;-80
2021/11/13 07:35:39;;;;;;;1999.90;999.90;;;4.30;99.90;;;;;;5094403;28;20028;-79
2021/11/13 07:38:05;;;;;;;1999.90;999.90;;;4.30;99.90;;;;;;5094391;28;20059;-79
2021/11/13 07:40:31;;;;;;;1999.90;999.90;;;4.30;99.90;;;;;;5094029;28;20720;-77
2021/11/13 07:42:57;;;;;;;1999.90;999.90;;;4.30;99.90;;;;;;5094296;28;20031;-79
2021/11/13 07:45:23;;;;;;;1999.90;999.90;;;4.30;99.90;;;;;;5094038;28;20060;-83
2021/11/13 07:47:49;;;;;;;1999.90;999.90;;;4.40;99.90;;;;;;5093551;28;20058;-81
2021/11/13 07:50:16;;;;;;;1999.90;999.90;;;4.30;99.90;;;;;;5094593;28;20466;-83
2021/11/13 07:52:43;;;;;;;1999.90;999.90;;;4.30;99.90;;;;;;5094886;28;20172;-82
2021/11/13 07:55:10;;;;;;;1999.90;999.90;;;4.40;99.90;;;;;;5094390;28;20055;-82
2021/11/13 07:57:36;;;;;;;1999.90;999.90;;;4.40;99.90;;;;;;5094435;28;20016;-82
2021/11/13 08:00:07;;;;;;;1999.90;999.90;;;4.40;99.90;;;;;;5094155;28;20368;-82
2021/11/13 08:02:33;;;;;;;1999.90;999.90;;;4.40;99.90;;;;;;5094052;28;20024;-81
2021/11/13 08:04:59;;;;;;;1999.90;999.90;;;4.40;99.90;;;;;;5112970;28;20436;-82
2021/11/13 08:07:25;;;;;;;1999.90;999.90;;;4.40;99.90;;;;;;5115615;28;20027;-85
2021/11/13 08:09:50;;;;;;;1999.90;999.90;;;4.40;99.90;;;;;;5114820;28;20020;-81
2021/11/13 08:12:17;;;;;;;1999.90;999.90;;;4.40;99.90;;;;;;5113867;28;20077;-82
2021/11/13 08:14:42;;;;;;;1999.90;999.90;;;4.50;99.90;;;;;;5113738;28;20023;-81
2021/11/13 08:17:08;;;;;;;1999.90;999.90;;;4.50;99.90;;;;;;5114537;28;20024;-80
2021/11/13 08:19:34;;;;;;;1999.90;999.90;;;4.50;99.90;;;;;;5113700;28;20027;-80
2021/11/13 08:21:59;;;;;;;1999.90;999.90;;;4.50;99.90;;;;;;5113192;28;20019;-80
2021/11/13 08:24:25;;;;;;;1999.90;999.90;;;4.50;99.90;;;;;;5113793;28;20028;-83
2021/11/13 08:26:50;;;;;;;1999.90;999.90;;;4.50;99.90;;;;;;5114242;28;20031;-82
2021/11/13 08:29:16;;;;;;;1999.90;999.90;;;4.60;99.90;;;;;;5114429;28;20111;-81
2021/11/13 08:31:43;;;;;;;1999.90;999.90;;;4.60;99.90;;;;;;5112892;28;20039;-83
2021/11/13 08:34:08;;;;;;;1999.90;999.90;;;4.60;99.90;;;;;;5113705;28;20023;-80
2021/11/13 08:36:34;;;;;;;1999.90;999.90;;;4.70;99.90;;;;;;5114266;28;20098;-79
2021/11/13 08:39:01;;;;;;;1999.90;999.90;;;4.70;99.90;;;;;;5112930;28;20118;-80
2021/11/13 08:41:27;;;;;;;1999.90;999.90;;;4.70;99.90;;;;;;5112915;28;20072;-80
2021/11/13 08:43:52;;;;;;;1999.90;999.90;;;4.70;99.90;;;;;;5113761;28;20024;-78
2021/11/13 08:46:18;;;;;;;1999.90;999.90;;;4.80;99.90;;;;;;5112666;28;20425;-79
2021/11/13 08:48:45;;;;;;;1999.90;999.90;;;4.80;99.90;;;;;;5112042;28;20034;-73
2021/11/13 08:51:11;;;;;;;1999.90;999.90;;;4.90;99.90;;;;;;5113189;28;20023;-73
2021/11/13 08:53:37;;;;;;;1999.90;999.90;;;4.90;99.90;;;;;;5113904;28;20030;-74
2021/11/13 08:56:03;;;;;;;1999.90;999.90;;;4.90;99.90;;;;;;5113884;27;20024;-81
2021/11/13 08:58:29;;;;;;;1999.90;999.90;;;5.00;99.90;;;;;;5111990;28;20110;-77
2021/11/13 09:01:01;;;;;;;1999.90;999.90;;;5.00;99.90;;;;;;5113126;28;20578;-82
2021/11/13 09:03:34;;;;;;;1999.90;999.90;;;5.00;99.90;;;;;;5112535;28;20046;-76
2021/11/13 09:06:05;;;;;;;1999.90;999.90;;;6.00;99.90;;;;;;5112540;28;20040;-77
2021/11/13 09:08:31;;;;;;;1999.90;999.90;;;6.40;99.90;;;;;;5113359;28;20115;-79
2021/11/13 09:10:57;;;;;;;1999.90;999.90;;;6.30;99.90;;;;;;5113893;28;20024;-80
2021/11/13 09:13:26;;;;;;;1999.90;999.90;;;6.00;99.90;;;;;;5113477;28;20077;-77
2021/11/13 09:15:54;;;;;;;1999.90;999.90;;;5.70;99.90;;;;;;5114885;28;20054;-79
2021/11/13 09:18:20;;;;;;;1999.90;999.90;;;5.60;99.90;;;;;;5113060;28;20357;-79
2021/11/13 09:20:46;;;;;;;1999.90;999.90;;;5.60;99.90;;;;;;5113381;28;20038;-79
2021/11/13 09:23:13;;;;;;;1999.90;999.90;;;5.50;99.90;;;;;;5112159;28;20027;-79
2021/11/13 09:25:40;;;;;;;1999.90;999.90;;;5.40;99.90;;;;;;5112362;28;20031;-78
2021/11/13 09:28:06;;;;;;;1999.90;999.90;;;5.40;99.90;;;;;;5112797;28;20035;-79
2021/11/13 09:30:34;;;;;;;1999.90;999.90;;;6.20;99.90;;;;;;5112110;28;20425;-78
2021/11/13 09:33:01;;;;;;;1999.90;999.90;;;5.90;99.90;;;;;;5111313;28;20114;-77
2021/11/13 09:35:27;;;;;;;1999.90;999.90;;;5.80;99.90;;;;;;5111657;28;20401;-82
2021/11/13 09:37:54;;;;;;;1999.90;999.90;;;5.60;99.90;;;;;;5112046;28;20073;-80
2021/11/13 09:40:22;;;;;;;1999.90;999.90;;;5.50;99.90;;;;;;5112243;28;20351;-78
2021/11/13 09:42:50;;;;;;;1999.90;999.90;;;5.40;99.90;;;;;;5111825;28;20024;-80
2021/11/13 09:45:17;;;;;;;1999.90;999.90;;;5.30;99.90;;;;;;5111888;28;20100;-79
2021/11/13 09:47:44;;;;;;;1999.90;999.90;;;5.10;99.90;;;;;;5111892;28;20031;-78
2021/11/13 09:50:11;;;;;;;1999.90;999.90;;;5.20;99.90;;;;;;5110973;28;20023;-80
2021/11/13 09:52:38;;;;;;;1999.90;999.90;;;5.30;99.90;;;;;;5111186;28;20735;-80
2021/11/13 09:55:07;;;;;;;1999.90;999.90;;;5.40;99.90;;;;;;5110930;28;20434;-78
2021/11/13 09:57:33;;;;;;;1999.90;999.90;;;5.40;99.90;;;;;;5111814;28;20100;-79
2021/11/13 09:59:59;;;;;;;1999.90;999.90;;;5.40;99.90;;;;;;5112903;28;20399;-79
2021/11/13 10:02:25;;;;;;;1999.90;999.90;;;5.40;99.90;;;;;;5111908;28;20474;-80
2021/11/13 10:04:50;;;;;;;1999.90;999.90;;;5.40;99.90;;;;;;5113127;28;20084;-78
2021/11/13 10:07:16;;;;;;;1999.90;999.90;;;5.40;99.90;;;;;;5111759;28;20066;-79
2021/11/13 10:09:43;;;;;;;1999.90;999.90;;;5.40;99.90;;;;;;5111922;28;20024;-78
2021/11/13 10:12:09;;;;;;;1999.90;999.90;;;5.40;99.90;;;;;;5111319;28;20061;-79
2021/11/13 10:14:42;;;;;;;1999.90;999.90;;;5.50;99.90;;;;;;5112854;28;20114;-80
2021/11/13 10:17:37;;;;;;;1999.90;999.90;;;5.50;99.90;;;;;;5111706;28;20028;-82
2021/11/13 10:20:21;;;;;;;1999.90;999.90;;;5.40;99.90;;;;;;5103755;28;20043;-82
2021/11/13 10:22:47;;;;;;;1999.90;999.90;;;5.40;99.90;;;;;;5111184;28;20027;-80
2021/11/13 10:25:14;;;;;;;1999.90;999.90;;;5.40;99.90;;;;;;5112608;28;20028;-79
2021/11/13 10:28:00;;;;;;;1999.90;999.90;;;5.40;99.90;;;;;;5111450;28;20028;-82
2021/11/13 10:30:25;;;;;;;1999.90;999.90;;;5.40;99.90;;;;;;5112759;28;20141;-82
2021/11/13 10:32:55;;;;;;;1999.90;999.90;;;5.40;99.90;;;;;;5112599;28;20506;-80
2021/11/13 10:35:55;;;;;;;1999.90;999.90;;;5.30;99.90;;;;;;5113816;28;20459;-82
2021/11/13 10:38:21;;;;;;;1999.90;999.90;;;5.30;99.90;;;;;;5114995;28;20020;-83
2021/11/13 10:40:56;;;;;;;1999.90;999.90;;;5.40;99.90;;;;;;5113812;28;20024;-81
2021/11/13 10:43:43;;;;;;;1999.90;999.90;;;5.40;99.90;;;;;;5114775;28;20103;-81
2021/11/13 10:46:21;;;;;;;1999.90;999.90;;;5.40;99.90;;;;;;5114751;28;20039;-80
2021/11/13 10:48:58;;;;;;;1999.90;999.90;;;5.40;99.90;;;;;;5113957;28;20016;-81
2021/11/13 10:51:35;;;;;;;1999.90;999.90;;;5.40;99.90;;;;;;5113829;28;20474;-82
2021/11/13 10:54:15;;;;;;;1999.90;999.90;;;5.50;99.90;;;;;;5114244;28;20015;-83
2021/11/13 10:56:50;;;;;;;1999.90;999.90;;;5.50;99.90;;;;;;5116985;28;20023;-81
2021/11/13 10:59:17;;;;;;;1999.90;999.90;;;5.40;99.90;;;;;;5117057;28;20023;-82
2021/11/13 11:01:48;;;;;;;1999.90;999.90;;;5.40;99.90;;;;;;5116490;28;20073;-80
2021/11/13 11:04:28;;;;;;;1999.90;999.90;;;5.40;99.90;;;;;;5119836;28;20019;-79
2021/11/13 11:07:12;;;;;;;1999.90;999.90;;;5.40;99.90;;;;;;5124923;28;20050;-79
2021/11/13 11:09:42;;;;;;;1999.90;999.90;;;5.40;99.90;;;;;;5116835;28;20027;-78
2021/11/13 11:12:08;;;;;;;1999.90;999.90;;;5.50;99.90;;;;;;5118810;28;20031;-82
2021/11/13 11:14:34;;;;;;;1999.90;999.90;;;5.50;99.90;;;;;;5116943;28;20023;-81
2021/11/13 11:17:03;;;;;;;1999.90;999.90;;;5.50;99.90;;;;;;5116519;28;20024;-81
2021/11/13 11:19:35;;;;;;;1999.90;999.90;;;5.40;99.90;;;;;;5116805;28;20026;-81
2021/11/13 11:22:08;;;;;;;1999.90;999.90;;;5.40;99.90;;;;;;5116838;28;20024;-77
2021/11/13 11:24:51;;;;;;;1999.90;999.90;;;5.40;99.90;;;;;;5116277;28;20020;-81
2021/11/13 11:27:26;;;;;;;1999.90;999.90;;;5.40;99.90;;;;;;5117708;28;20100;-82
2021/11/13 11:29:57;;;;;;;1999.90;999.90;;;5.50;99.90;;;;;;5117837;28;20034;-81
2021/11/13 11:32:32;;;;;;;1999.90;999.90;;;5.50;99.90;;;;;;5116541;28;20114;-79
2021/11/13 11:34:59;;;;;;;;;;;5.50;99.90;;;;;;5116616;28;20032;-82
2021/11/13 11:37:31;;;;;;;1999.90;999.90;;;5.60;99.90;;;;;;5116973;28;20329;-81
2021/11/13 11:40:21;;;;;;;1999.90;999.90;;;5.70;99.90;;;;;;5116027;28;20028;-80
2021/11/13 11:42:48;;;;;;;1999.90;999.90;;;5.70;99.90;;;;;;5112051;28;20032;-82
2021/11/13 11:45:26;;;;;;;1999.90;999.90;;;5.80;99.90;;;;;;5117712;28;20039;-82
2021/11/13 11:47:54;;;;;;;1999.90;999.90;;;5.80;99.90;;;;;;5117075;28;20533;-79
2021/11/13 11:50:26;;;;;;;1999.90;999.90;;;5.70;99.90;;;;;;5116213;28;20466;-83
2021/11/13 11:52:53;;;;;;;1999.90;999.90;;;5.60;99.90;;;;;;5117240;28;20482;-81
2021/11/13 11:55:20;;;;;;;1999.90;999.90;;;5.50;99.90;;;;;;5116073;28;20031;-85
2021/11/13 11:57:53;;;;;;;1999.90;999.90;;;5.50;99.90;;;;;;5117199;28;20491;-79
2021/11/13 12:00:22;;;;;;;1999.90;999.90;;;5.60;99.90;;;;;;5115323;27;20123;-82
2021/11/13 12:02:54;;;;;;;1999.90;999.90;;;5.60;99.90;;;;;;5115078;28;20117;-79
2021/11/13 12:05:28;;;;;;;1999.90;999.90;;;5.60;99.90;;;;;;5115756;28;20036;-78
2021/11/13 12:07:55;;;;;;;1999.90;999.90;;;5.60;99.90;;;;;;5115553;28;20027;-83
2021/11/13 12:10:30;;;;;;;1999.90;999.90;;;5.60;99.90;;;;;;5115213;28;20028;-80